Terminal Aerodrome Forecast
Issued by NWS Shreveport, LA

Home | Current Version | Previous Version | Text Only | Print | Product List | Glossary On
Versions: 1 2 3 4 5 6 7 8 9 10 11 12 13 14 15 16 17 18 19 20 21
000
FTUS44 KSHV 260900 AAD
TAFMLU
TAF AMD
KMLU 260901Z 2609/2706 VRB03KT 1SM BR SCT250
      TEMPO 2609/2611 1/2SM FG
     FM261100 21002KT 2SM BR SKC
     FM261300 22007KT P6SM SKC
     FM270000 18004KT P6SM SKC=

USA.gov is the U.S. government's official web portal to all federal, state and local government web resources and services.